Negaunee, MI

6:53 AM EST on February 07, 2016 (GMT -0500)
Negaunee, Michigan | | Change Station
CLOSE
Current Station
Personal Weather Station
Location: Negaunee, MI
Elevation: 1305 ft
Nearby Weather Stations

Elev 1305 ft 46.50 °N, 87.61 °W | Updated 9 minutes ago

Overcast
Overcast
27.5 °F
Feels Like 20 °F
N
7.3
Wind Variable Wind from SSW

Today
High -- | Low -- °F
--% Chance of Precip.
Yesterday
High -- | Low -- °F
Precip. -- in
Pressure 29.62 in
Visibility 5.0 miles
Clouds Overcast 900 ft
Windchill 20 °F
Dew Point 24 °F
Humidity 88%
Rainfall 0.00 in
Snow Depth Not available.
8:06 AM 6:02 PM
Waning Crescent, 2% visible
METAR KSAW 071146Z 19012KT 5SM BR OVC009 M03/M03 A2962
Pressure 29.62 in
Visibility 5.0 miles
Clouds Overcast 900 ft
Windchill 20 °F
Dew Point 24 °F
Humidity 88%
Rainfall 0.00 in
Snow Depth Not available.
8:06 AM 6:02 PM
Waning Crescent, 2% visible
METAR KSAW 071146Z 19012KT 5SM BR OVC009 M03/M03 A2962

10-Day Weather Forecast

Almanac

Astronomy

Feb. 07, 2016 Rise Set
Actual Time
Civil Twilight
Nautical Twilight
Astronomical Twilight
Moon
Length of Visible Light
Length of Day
Tomorrow will be .
, % of the Moon is Illuminated

Today's Extremes

State Highs State Lows

Community

WunderPhotos

Upload Photos

1,891,182 photos uploaded!

WunderBlog® & News

Nearby

Air Quality

  Air Quality AQ Index Pollutant
Not available.

Snow Depth

Station Depth Elevation

Earthquake Activity

City Distance Mag. Time & Date
Minimum magnitude displayed is 2.5.

Coastal Water Temperatures

Place Temperature

Stations

Nearby Weather Stations

Station Location Temp. Windchill Dew Point Humidity Wind Precip. Elev Updated Type
                   

Watches & Warnings

There are currently no watches in effect.